createdAt,value
2018-08-12T00:00:30.066Z,6.95
2018-08-12T00:02:59.507Z,7.10
2018-08-12T00:05:28.184Z,6.80
2018-08-12T00:07:56.754Z,8.43
2018-08-12T00:10:25.982Z,8.90
2018-08-12T00:12:54.921Z,6.42
2018-08-12T00:15:23.995Z,7.27
2018-08-12T00:17:53.965Z,6.73
2018-08-12T00:20:23.415Z,6.80
2018-08-12T00:22:52.629Z,9.40
2018-08-12T00:25:22.726Z,8.43
2018-08-12T00:27:51.365Z,8.33
2018-08-12T00:30:20.452Z,6.53
2018-08-12T00:32:49.067Z,6.83
2018-08-12T00:35:18.674Z,7.03
2018-08-12T00:37:47.337Z,7.50
2018-08-12T00:40:18.034Z,8.68
2018-08-12T00:42:47.296Z,7.00
2018-08-12T00:45:19.276Z,6.47
2018-08-12T00:47:48.317Z,8.67
2018-08-12T00:50:18.358Z,6.95
2018-08-12T00:52:47.007Z,8.93
2018-08-12T01:05:17.602Z,8.03
2018-08-12T01:07:47.051Z,9.03
2018-08-12T01:15:17.563Z,7.77
2018-08-12T01:17:46.510Z,7.30
2018-08-12T01:25:11.831Z,9.93
2018-08-12T01:27:40.365Z,9.10
2018-08-12T01:30:15.582Z,8.83
2018-08-12T01:32:44.567Z,9.00
2018-08-12T01:35:14.056Z,9.07
2018-08-12T01:37:43.582Z,9.30
2018-08-12T01:40:13.716Z,7.97
2018-08-12T01:42:42.988Z,8.43
2018-08-12T01:45:15.369Z,9.33
2018-08-12T01:47:44.699Z,10.03
2018-08-12T01:50:15.163Z,7.90
2018-08-12T01:52:45.688Z,8.07
2018-08-12T02:05:08.130Z,9.90
2018-08-12T02:07:36.765Z,7.90
2018-08-12T02:10:07.237Z,10.23
2018-08-12T02:12:35.925Z,10.00
2018-08-12T02:15:06.681Z,18.40
2018-08-12T02:17:36.086Z,9.70
2018-08-12T02:20:05.670Z,8.80
2018-08-12T02:22:34.321Z,8.88
2018-08-12T02:25:03.041Z,9.20
2018-08-12T02:27:31.833Z,10.63
2018-08-12T02:30:00.435Z,11.90
2018-08-12T02:32:28.992Z,10.03
2018-08-12T02:35:04.494Z,8.20
2018-08-12T02:37:32.987Z,10.60
2018-08-12T02:40:01.511Z,9.00
2018-08-12T02:42:30.064Z,10.58
2018-08-12T02:44:58.590Z,8.70
2018-08-12T02:47:27.101Z,8.30
2018-08-12T02:49:56.230Z,8.23
2018-08-12T02:52:24.736Z,13.05
2018-08-12T02:54:53.239Z,9.43
2018-08-12T02:57:21.805Z,9.15
2018-08-12T02:59:50.333Z,9.93
2018-08-12T03:02:18.910Z,11.53
2018-08-12T03:04:47.457Z,9.97
2018-08-12T03:12:11.363Z,9.27
2018-08-12T03:14:39.866Z,9.60
2018-08-12T03:17:08.409Z,9.83
2018-08-12T03:19:37.274Z,9.90
2018-08-12T03:22:05.892Z,8.43
2018-08-12T03:24:34.414Z,8.35
2018-08-12T03:27:02.962Z,8.70
2018-08-12T03:29:31.945Z,7.80
2018-08-12T03:32:01.179Z,7.42
2018-08-12T03:34:30.426Z,14.30
2018-08-12T03:36:58.942Z,8.90
2018-08-12T03:39:27.454Z,8.45
2018-08-12T03:41:56.033Z,7.33
2018-08-12T03:44:24.596Z,7.53
2018-08-12T03:46:53.094Z,13.33
2018-08-12T03:49:21.792Z,9.13
2018-08-12T03:51:50.364Z,7.93
2018-08-12T03:54:18.966Z,7.67
2018-08-12T03:56:47.825Z,7.43
2018-08-12T03:59:17.455Z,9.23
2018-08-12T04:01:45.973Z,7.20
2018-08-12T04:09:11.842Z,11.60
2018-08-12T04:11:42.628Z,17.27
2018-08-12T04:14:11.162Z,7.87
2018-08-12T04:16:43.847Z,9.83
2018-08-12T04:19:12.355Z,8.60
2018-08-12T04:21:40.948Z,8.50
2018-08-12T04:24:09.522Z,8.20
2018-08-12T04:26:38.340Z,9.60
2018-08-12T04:29:06.877Z,8.00
2018-08-12T04:31:35.444Z,7.40
2018-08-12T04:34:04.333Z,11.83
2018-08-12T04:36:33.697Z,8.10
2018-08-12T04:39:02.321Z,7.93
2018-08-12T04:41:31.563Z,12.47
2018-08-12T04:44:00.097Z,8.73
2018-08-12T04:46:28.890Z,12.03
2018-08-12T04:48:57.369Z,9.20
2018-08-12T04:51:25.905Z,9.20
2018-08-12T04:53:54.492Z,7.08
2018-08-12T04:56:23.122Z,10.07
2018-08-12T04:58:51.837Z,12.13
2018-08-12T05:01:27.029Z,14.03
2018-08-12T05:03:55.525Z,9.48
2018-08-12T05:06:24.125Z,10.27
2018-08-12T05:08:52.720Z,8.73
2018-08-12T05:11:21.261Z,8.18
2018-08-12T05:13:49.916Z,7.03
2018-08-12T05:16:18.537Z,7.58
2018-08-12T05:18:47.326Z,10.80
2018-08-12T05:21:17.673Z,8.40
2018-08-12T05:23:47.029Z,11.43
2018-08-12T05:39:18.362Z,11.63
2018-08-12T05:41:46.959Z,9.77
2018-08-12T05:49:09.286Z,9.77
2018-08-12T05:51:38.275Z,10.80
2018-08-12T05:54:06.834Z,11.17
2018-08-12T05:56:35.419Z,9.00
2018-08-12T05:59:04.053Z,10.73
2018-08-12T06:01:40.114Z,11.00
2018-08-12T06:04:08.766Z,10.60
2018-08-12T06:06:37.249Z,10.87
2018-08-12T06:09:08.355Z,11.07
2018-08-12T06:11:36.930Z,10.77
2018-08-12T06:14:06.374Z,11.20
2018-08-12T06:16:35.836Z,21.47
2018-08-12T06:19:04.442Z,9.70
2018-08-12T06:21:33.801Z,8.43
2018-08-12T06:24:03.133Z,8.33
2018-08-12T06:26:31.674Z,7.60
2018-08-12T06:29:00.227Z,7.60
2018-08-12T06:31:28.864Z,11.47
2018-08-12T06:33:57.409Z,7.00
2018-08-12T06:36:25.920Z,6.23
2018-08-12T06:38:54.770Z,7.43
2018-08-12T06:41:23.318Z,5.50
2018-08-12T06:43:52.027Z,5.77
2018-08-12T06:46:20.793Z,5.67
2018-08-12T06:48:49.481Z,4.90
2018-08-12T06:51:18.042Z,5.10
2018-08-12T06:53:46.570Z,4.43
2018-08-12T06:56:16.687Z,4.65
2018-08-12T06:58:45.237Z,4.37
2018-08-12T07:01:15.012Z,4.77
2018-08-12T07:03:43.698Z,4.90
2018-08-12T07:06:12.262Z,4.70
2018-08-12T07:08:40.871Z,5.23
2018-08-12T07:11:09.470Z,7.23
2018-08-12T07:13:38.078Z,8.63
2018-08-12T07:16:06.661Z,4.03
2018-08-12T07:18:35.683Z,3.90
2018-08-12T07:21:04.473Z,3.47
2018-08-12T07:23:33.089Z,3.83
2018-08-12T07:26:01.783Z,8.07
2018-08-12T07:28:30.473Z,3.67
2018-08-12T07:30:59.046Z,3.93
2018-08-12T07:33:27.631Z,3.70
2018-08-12T07:35:56.146Z,3.20
2018-08-12T07:38:24.752Z,3.60
2018-08-12T07:40:53.414Z,3.03
2018-08-12T07:43:21.942Z,2.70
2018-08-12T07:45:50.915Z,3.10
2018-08-12T07:48:19.462Z,3.10
2018-08-12T07:50:47.992Z,3.43
2018-08-12T07:58:10.194Z,2.80
2018-08-12T08:00:38.862Z,3.03
2018-08-12T08:03:07.433Z,3.00
2018-08-12T08:05:36.047Z,3.40
2018-08-12T08:08:04.659Z,6.50
2018-08-12T08:10:33.178Z,2.90
2018-08-12T08:13:02.186Z,2.80
2018-08-12T08:15:30.763Z,3.45
2018-08-12T08:17:59.341Z,2.70
2018-08-12T08:20:27.856Z,5.93
2018-08-12T08:22:56.382Z,2.37
2018-08-12T08:25:24.928Z,2.47
2018-08-12T08:27:53.973Z,2.57
2018-08-12T08:30:22.569Z,2.80
2018-08-12T08:32:51.158Z,1.83
2018-08-12T08:35:19.707Z,1.70
2018-08-12T08:37:48.181Z,3.70
2018-08-12T08:40:18.016Z,6.13
2018-08-12T08:42:47.117Z,1.80
2018-08-12T08:50:10.102Z,1.70
2018-08-12T08:52:38.890Z,3.43
2018-08-12T08:55:09.088Z,1.60
2018-08-12T08:57:37.770Z,1.52
2018-08-12T09:00:09.974Z,1.47
2018-08-12T09:02:38.625Z,2.80
2018-08-12T09:05:09.099Z,1.57
2018-08-12T09:07:37.618Z,1.67
2018-08-12T09:10:07.903Z,1.50
2018-08-12T09:12:38.351Z,1.40
2018-08-12T09:15:08.497Z,1.90
2018-08-12T09:17:37.080Z,1.83
2018-08-12T09:20:07.604Z,1.70
2018-08-12T09:22:36.379Z,1.60
2018-08-12T09:25:05.972Z,2.73
2018-08-12T09:27:34.941Z,1.50
2018-08-12T09:30:05.569Z,1.40
2018-08-12T09:32:34.125Z,1.60
2018-08-12T09:35:02.654Z,1.70
2018-08-12T09:37:31.475Z,1.70
2018-08-12T09:40:01.706Z,1.37
2018-08-12T09:42:30.418Z,2.45
2018-08-12T09:44:59.253Z,1.53
2018-08-12T09:47:27.806Z,1.27
2018-08-12T09:49:56.743Z,2.30
2018-08-12T09:52:26.006Z,1.40
2018-08-12T09:54:55.147Z,2.20
2018-08-12T09:57:23.994Z,1.20
2018-08-12T09:59:52.514Z,1.75
2018-08-12T10:02:21.134Z,1.50
2018-08-12T10:04:49.703Z,2.87
2018-08-12T10:09:58.741Z,2.13
2018-08-12T10:12:27.385Z,1.80
2018-08-12T10:14:55.883Z,2.03
2018-08-12T10:17:24.458Z,1.80
2018-08-12T10:19:53.188Z,5.80
2018-08-12T10:22:21.738Z,1.93
2018-08-12T10:24:50.891Z,2.10
2018-08-12T10:27:19.583Z,2.23
2018-08-12T10:29:48.068Z,2.37
2018-08-12T10:32:18.192Z,2.50
2018-08-12T10:34:47.620Z,4.27
2018-08-12T10:37:17.449Z,2.70
2018-08-12T10:39:47.563Z,2.97
2018-08-12T10:42:17.457Z,6.80
2018-08-12T10:44:46.119Z,4.20
2018-08-12T10:52:15.834Z,3.70
2018-08-12T10:54:44.426Z,3.07
2018-08-12T10:57:13.093Z,2.87
2018-08-12T10:59:41.794Z,3.50
2018-08-12T11:02:10.422Z,3.23
2018-08-12T11:04:39.477Z,2.90
2018-08-12T11:07:08.140Z,5.13
2018-08-12T11:09:36.862Z,3.77
2018-08-12T11:12:05.655Z,2.80
2018-08-12T11:14:34.681Z,2.45
2018-08-12T11:17:03.372Z,3.27
2018-08-12T11:19:31.944Z,2.80
2018-08-12T11:22:00.538Z,2.80
2018-08-12T11:24:29.133Z,3.10
2018-08-12T11:26:59.244Z,8.83
2018-08-12T11:29:27.787Z,3.00
2018-08-12T11:31:56.293Z,2.60
2018-08-12T11:34:25.578Z,2.83
2018-08-12T11:36:54.422Z,2.37
2018-08-12T11:39:22.981Z,4.53
2018-08-12T11:41:51.746Z,4.40
2018-08-12T11:44:20.333Z,2.50
2018-08-12T11:46:48.931Z,2.90
2018-08-12T11:49:17.417Z,3.17
2018-08-12T11:51:46.168Z,2.50
2018-08-12T11:59:09.525Z,2.93
2018-08-12T12:01:38.975Z,4.33
2018-08-12T12:04:08.261Z,5.53
2018-08-12T12:06:36.842Z,2.30
2018-08-12T12:09:08.034Z,2.60
2018-08-12T12:11:36.545Z,2.37
2018-08-12T12:14:05.565Z,6.13
2018-08-12T12:16:35.168Z,3.55
2018-08-12T12:19:03.888Z,3.00
2018-08-12T12:21:35.618Z,3.15
2018-08-12T12:24:04.405Z,4.20
2018-08-12T12:26:32.942Z,2.85
2018-08-12T12:29:01.536Z,2.70
2018-08-12T12:31:30.268Z,5.63
2018-08-12T12:33:58.907Z,5.90
2018-08-12T12:36:29.831Z,3.40
2018-08-12T12:38:58.396Z,2.93
2018-08-12T12:41:27.234Z,2.80
2018-08-12T12:43:56.326Z,3.03
2018-08-12T12:46:25.226Z,3.10
2018-08-12T12:48:53.839Z,5.10
2018-08-12T12:51:22.742Z,2.50
2018-08-12T12:53:51.313Z,3.10
2018-08-12T12:56:19.945Z,4.10
2018-08-12T12:58:48.754Z,3.00
2018-08-12T13:01:17.922Z,2.87
2018-08-12T13:03:46.533Z,2.90
2018-08-12T13:11:13.682Z,2.90
2018-08-12T13:13:42.198Z,2.93
2018-08-12T13:16:10.716Z,2.27
2018-08-12T13:18:39.272Z,3.90
2018-08-12T13:21:07.737Z,2.50
2018-08-12T13:23:36.261Z,2.27
2018-08-12T13:26:04.880Z,3.10
2018-08-12T13:28:33.405Z,5.20
2018-08-12T13:31:01.890Z,2.70
2018-08-12T13:33:30.497Z,2.47
2018-08-12T13:35:59.008Z,3.57
2018-08-12T13:38:28.162Z,3.70
2018-08-12T13:40:57.481Z,2.90
2018-08-12T13:43:26.147Z,3.43
2018-08-12T13:45:54.649Z,4.23
2018-08-12T13:48:23.160Z,4.10
2018-08-12T13:50:51.745Z,2.90
2018-08-12T13:53:20.288Z,5.83
2018-08-12T13:55:49.090Z,6.73
2018-08-12T13:58:17.625Z,4.30
2018-08-12T14:00:46.173Z,4.50
2018-08-12T14:08:15.594Z,3.43
2018-08-12T14:10:44.445Z,2.87
2018-08-12T14:13:13.033Z,2.77
2018-08-12T14:15:41.762Z,3.87
2018-08-12T14:18:11.790Z,3.80
2018-08-12T14:20:40.289Z,3.67
2018-08-12T14:23:10.935Z,7.20
2018-08-12T14:25:40.137Z,3.33
2018-08-12T14:28:08.742Z,3.40
2018-08-12T14:30:37.830Z,3.27
2018-08-12T14:33:06.634Z,6.30
2018-08-12T14:35:35.128Z,2.67
2018-08-12T14:38:03.928Z,3.98
2018-08-12T14:40:33.212Z,5.08
2018-08-12T14:43:02.431Z,2.77
2018-08-12T14:45:30.998Z,3.13
2018-08-12T14:47:59.516Z,3.08
2018-08-12T14:50:28.223Z,3.30
2018-08-12T14:52:56.817Z,3.20
2018-08-12T14:55:26.240Z,3.00
2018-08-12T14:57:54.721Z,2.80
2018-08-12T15:00:23.285Z,2.70
2018-08-12T15:02:52.822Z,2.90
2018-08-12T15:05:21.501Z,5.45
2018-08-12T15:07:50.300Z,3.83
2018-08-12T15:10:18.812Z,3.83
2018-08-12T15:12:47.399Z,3.17
2018-08-12T15:15:20.651Z,4.85
2018-08-12T15:17:49.294Z,3.03
2018-08-12T15:20:18.229Z,2.83
2018-08-12T15:22:46.844Z,2.77
2018-08-12T15:30:12.593Z,3.20
2018-08-12T15:32:41.233Z,2.93
2018-08-12T15:35:10.235Z,3.10
2018-08-12T15:37:39.051Z,6.53
2018-08-12T15:40:09.798Z,7.83
2018-08-12T15:42:38.426Z,2.90
2018-08-12T15:45:09.669Z,3.07
2018-08-12T15:47:38.369Z,3.27
2018-08-12T15:50:08.058Z,3.73
2018-08-12T15:52:36.686Z,3.40
2018-08-12T15:55:05.913Z,3.00
2018-08-12T15:57:34.469Z,3.27
2018-08-12T16:00:03.132Z,3.00
2018-08-12T16:02:31.740Z,3.50
2018-08-12T16:05:00.303Z,3.20
2018-08-12T16:07:28.883Z,3.07
2018-08-12T16:09:57.522Z,2.80
2018-08-12T16:12:26.014Z,3.57
2018-08-12T16:14:54.695Z,3.30
2018-08-12T16:17:23.186Z,2.80
2018-08-12T16:19:51.729Z,3.30
2018-08-12T16:22:20.304Z,3.20
2018-08-12T16:24:48.889Z,3.07
2018-08-12T16:27:17.445Z,3.50
2018-08-12T16:29:46.071Z,3.00
2018-08-12T16:37:08.858Z,4.43
2018-08-12T16:39:37.556Z,3.12
2018-08-12T16:42:06.323Z,3.07
2018-08-12T16:44:35.278Z,3.50
2018-08-12T16:47:03.857Z,3.17
2018-08-12T16:49:32.446Z,3.10
2018-08-12T16:52:01.589Z,3.90
2018-08-12T16:54:30.118Z,3.70
2018-08-12T16:56:58.662Z,4.43
2018-08-12T16:59:27.201Z,4.63
2018-08-12T17:01:56.849Z,3.20
2018-08-12T17:04:25.619Z,5.58
2018-08-12T17:06:54.240Z,3.20
2018-08-12T17:09:23.690Z,3.33
2018-08-12T17:11:52.338Z,3.00
2018-08-12T17:14:20.981Z,3.17
2018-08-12T17:16:52.865Z,3.00
2018-08-12T17:19:21.562Z,9.73
2018-08-12T17:21:50.682Z,3.47
2018-08-12T17:24:22.869Z,4.07
2018-08-12T17:26:54.006Z,5.40
2018-08-12T17:29:27.025Z,4.56
2018-08-12T17:32:06.421Z,3.47
2018-08-12T17:34:39.591Z,3.60
2018-08-12T17:37:08.341Z,3.33
2018-08-12T17:39:37.005Z,4.17
2018-08-12T17:42:05.620Z,3.37
2018-08-12T17:44:34.328Z,3.25
2018-08-12T17:47:03.430Z,3.20
2018-08-12T17:49:32.302Z,3.10
2018-08-12T17:52:00.902Z,3.20
2018-08-12T17:54:29.409Z,6.17
2018-08-12T17:57:00.904Z,3.63
2018-08-12T17:59:29.419Z,5.62
2018-08-12T18:01:57.969Z,3.10
2018-08-12T18:04:26.490Z,4.87
2018-08-12T18:06:55.064Z,4.63
2018-08-12T18:09:23.620Z,3.00
2018-08-12T18:11:52.104Z,4.70
2018-08-12T18:14:20.669Z,10.25
2018-08-12T18:16:49.185Z,5.30
2018-08-12T18:19:17.677Z,3.90
2018-08-12T18:21:46.333Z,8.53
2018-08-12T18:29:09.090Z,3.90
2018-08-12T18:31:37.724Z,3.70
2018-08-12T18:34:06.296Z,5.60
2018-08-12T18:36:35.203Z,4.03
2018-08-12T18:39:05.759Z,6.33
2018-08-12T18:41:35.507Z,5.00
2018-08-12T18:44:05.859Z,4.73
2018-08-12T18:46:34.364Z,4.35
2018-08-12T18:49:03.246Z,5.37
2018-08-12T18:51:32.077Z,5.65
2018-08-12T18:54:00.629Z,4.50
2018-08-12T18:56:29.535Z,5.90
2018-08-12T18:58:58.102Z,5.73
2018-08-12T19:01:26.637Z,4.70
2018-08-12T19:03:55.710Z,5.43
2018-08-12T19:06:26.266Z,5.57
2018-08-12T19:08:55.848Z,6.27
2018-08-12T19:11:27.171Z,6.53
2018-08-12T19:13:56.115Z,7.10
2018-08-12T19:16:24.661Z,8.17
2018-08-12T19:18:53.587Z,5.07
2018-08-12T19:21:22.297Z,12.63
2018-08-12T19:24:00.858Z,13.03
2018-08-12T19:39:35.009Z,6.63
2018-08-12T19:42:03.554Z,4.65
2018-08-12T19:44:32.169Z,6.13
2018-08-12T19:47:02.300Z,5.70
2018-08-12T19:49:31.479Z,8.58
2018-08-12T19:52:00.023Z,6.93
2018-08-12T19:54:28.697Z,5.45
2018-08-12T19:56:57.391Z,4.60
2018-08-12T19:59:25.945Z,8.77
2018-08-12T20:01:54.925Z,9.20
2018-08-12T20:04:23.470Z,7.17
2018-08-12T20:06:52.033Z,6.33
2018-08-12T20:09:20.756Z,5.58
2018-08-12T20:11:49.323Z,4.90
2018-08-12T20:14:18.620Z,6.23
2018-08-12T20:16:47.184Z,5.93
2018-08-12T20:19:17.577Z,5.92
2018-08-12T20:21:46.136Z,15.37
2018-08-12T20:29:07.798Z,6.77
2018-08-12T20:31:37.086Z,6.10
2018-08-12T20:34:05.659Z,6.53
2018-08-12T20:36:34.288Z,6.62
2018-08-12T20:39:03.135Z,7.17
2018-08-12T20:41:32.650Z,9.40
2018-08-12T20:44:01.415Z,11.30
2018-08-12T20:46:29.956Z,8.43
2018-08-12T20:48:59.357Z,6.25
2018-08-12T20:51:28.618Z,11.33
2018-08-12T20:53:57.299Z,11.97
2018-08-12T20:56:25.948Z,9.43
2018-08-12T20:58:54.607Z,6.37
2018-08-12T21:01:24.129Z,9.37
2018-08-12T21:03:52.751Z,11.93
2018-08-12T21:06:21.366Z,7.95
2018-08-12T21:08:49.871Z,12.93
2018-08-12T21:11:18.450Z,14.30
2018-08-12T21:13:47.522Z,15.03
2018-08-12T21:16:17.569Z,7.90
2018-08-12T21:18:46.265Z,8.77
2018-08-12T21:26:12.546Z,11.13
2018-08-12T21:28:41.542Z,8.67
2018-08-12T21:31:10.221Z,8.30
2018-08-12T21:33:39.315Z,8.33
2018-08-12T21:36:07.894Z,8.50
2018-08-12T21:38:36.485Z,7.70
2018-08-12T21:41:05.115Z,8.37
2018-08-12T21:43:33.721Z,8.85
2018-08-12T21:46:02.298Z,7.80
2018-08-12T21:48:31.062Z,9.30
2018-08-12T21:50:59.559Z,7.20
2018-08-12T21:53:28.638Z,7.27
2018-08-12T21:55:57.241Z,7.70
2018-08-12T21:58:25.903Z,8.17
2018-08-12T22:00:55.184Z,7.07
2018-08-12T22:03:24.046Z,8.13
2018-08-12T22:05:52.696Z,8.28
2018-08-12T22:08:21.221Z,8.03
2018-08-12T22:10:50.069Z,6.87
2018-08-12T22:13:18.691Z,7.17
2018-08-12T22:15:47.241Z,8.07
2018-08-12T22:18:17.744Z,7.93
2018-08-12T22:20:46.290Z,8.20
2018-08-12T22:28:08.470Z,7.23
2018-08-12T22:30:37.019Z,7.07
2018-08-12T22:33:05.675Z,9.90
2018-08-12T22:35:35.175Z,8.53
2018-08-12T22:38:03.766Z,8.20
2018-08-12T22:40:32.429Z,11.43
2018-08-12T22:43:01.012Z,8.20
2018-08-12T22:45:29.556Z,9.70
2018-08-12T22:47:58.086Z,7.23
2018-08-12T22:50:26.674Z,8.53
2018-08-12T22:52:55.265Z,7.40
2018-08-12T22:55:24.178Z,8.00
2018-08-12T22:57:52.781Z,8.20
2018-08-12T23:00:21.307Z,7.15
2018-08-12T23:02:49.978Z,8.53
2018-08-12T23:05:18.508Z,7.30
2018-08-12T23:07:47.058Z,7.87
2018-08-12T23:16:23.598Z,9.30
2018-08-12T23:18:52.443Z,8.37
2018-08-12T23:21:21.318Z,8.85
2018-08-12T23:23:50.805Z,10.40
2018-08-12T23:26:20.578Z,10.60
2018-08-12T23:28:49.077Z,11.33
2018-08-12T23:31:17.600Z,9.63
2018-08-12T23:33:46.491Z,9.13
2018-08-12T23:41:12.020Z,10.63
2018-08-12T23:43:41.231Z,10.28
2018-08-12T23:46:10.455Z,10.13
2018-08-12T23:48:39.110Z,10.00
2018-08-12T23:51:08.063Z,9.47
2018-08-12T23:53:36.709Z,9.37
2018-08-12T23:56:05.811Z,9.93
2018-08-12T23:58:34.354Z,10.08
